KAVXKRIV

Guest
Details From KAVX - Catalina
To KRIV - March ARB
Flight Number -
Tags generated
Created
Modified
Stats Distance 65 nm / 120 km
Max Altitude 4,000 ft / 1,219 m
Waypoints 3
Social Downloads 0
Likes 0
Share VATSIM

Download

Looking for another format? Having issues loading an existing format? Contact us
Advertisement - Login to hide

Notes

Basic altitude profile: - Ascent Rate: 2500ft/min - Ascent Speed: 250kts - Cruise Altitude: 35000ft - Cruise Speed: 420kts - Descent Rate: 1500ft/min - Descent Speed: 250kts Options: - Use NATs: yes - Use PACOTS: yes - Use low airways: yes - Use high airways: yes

Route

KAVX COREL KRIV

ID Type Via Altitude Latitude Longitude Leg Dist Tot Dist Heading (true) Name
O KAVX APT - 0 ft / 0 m 33.40466˚ -118.41588˚ - 0 nm - Catalina
COREL FIX - 4,000 ft / 1,219 m 33.74905˚ -117.60374˚ 45 nm 45 nm 63° / 63° -
O KRIV APT - 0 ft / 0 m 33.88400˚ -117.25828˚ 19 nm 64 nm 65° / 65° March ARB

Altitude Profile

Advertisement - Login to hide

KAVX

Details ICAO KAVX (AVX)
Name Catalina
Region United States
Timezone America/Los_Angeles (UTC-7.0)
Stats Elevation 1,601 ft / 488 m (AMSL)
Location 33.404656° -118.415880°
Runways 1
Magnetic Variation 11.863° E

METAR

KAVX 270840Z AUTO 10005KT 3SM BR OVC002 12/12 A2995 RMK AO2 T01170117 $

Decode

TAF

Not found

Departure Runways

ID Width Length Bearing (true) Bearing (mag) Surface Threshold Offset Overrun Length
04 59 ft / 18 m 3,127 ft / 953 m 54.93° 43.07° Asphalt 131 ft / 40 m 0 ft / 0 m
22 59 ft / 18 m 3,127 ft / 953 m 234.93° 223.07° Asphalt 62 ft / 19 m 0 ft / 0 m

KRIV

Details ICAO KRIV (RIV)
Name March ARB
Region United States
Timezone America/Los_Angeles (UTC-7.0)
Stats Elevation 1,535 ft / 468 m (AMSL)
Location 33.884002° -117.258279°
Runways 2
Magnetic Variation 11.717° E

METAR

KRIV 270758Z AUTO 14004KT 10SM CLR 12/11 A2996 RMK AO2 SLP140 T01150109 402100099 $

Decode

TAF

TAF KRIV 270400Z 2704/2810 30009KT 9999 BKN045 QNH2995INS BECMG 2705/2706 15006KT 9999 SCT010 BKN020 QNH2997INS TEMPO 2709/2713 OVC015 BECMG 2718/2719 30009KT 9999 SCT030 QNH2993INS BECMG 2720/2721 31012G18KT 9999 FEW050 QNH2987INS BECMG 2802/2803 30009KT 9999 FEW040 QNH2994INS BECMG 2805/2806 15006KT 9999 FEW020 SCT040 QNH2996INS TX23/2722Z TN10/2712Z

Decode

Destination Runways

ID Width Length Bearing (true) Bearing (mag) Surface Threshold Offset Overrun Length
12 98 ft / 30 m 3,060 ft / 933 m 135.01° 123.29° Asphalt 0 ft / 0 m 0 ft / 0 m
14 200 ft / 61 m 13,321 ft / 4,060 m 149.43° 137.71° Concrete 0 ft / 0 m 1,001 ft / 305 m
30 98 ft / 30 m 3,060 ft / 933 m 315.01° 303.29° Asphalt 0 ft / 0 m 1,785 ft / 544 m
32 200 ft / 61 m 13,321 ft / 4,060 m 329.44° 317.72° Concrete 0 ft / 0 m 1,001 ft / 305 m

Approach Navaids

Runway Type Ident Frequency Range Bearing (true) Bearing (mag) Slope Elevation
32 Localiser IRIV 110.10 MHz 18 nm / 33 km 329.43° 317.71° - 1,535 ft / 468 m (AMSL)
32 Glidescope IRIV 110.10 MHz 10 nm / 19 km 329.44° 317.72° 2.70° 1,535 ft / 468 m (AMSL)